KGWO/GWO METAR and TAF weather

Enter ICAO airport designator
Station Type Date Time Source
KGWO METAR 2020/09/18 15:53 UTC NOAA

KGWO 181553Z AUTO 02006KT 10SM CLR 24/18 A3006 RMK AO2 SLP177 T02440178


Station Type Date Time Source
KGWO Decoded METAR 2020/09/18 15:53 UTC NOAA

GREENWOOD-LEFLORE AIRPORT, MS, United States (KGWO) 33-30N 090-05W 44M
Sep 18, 2020 - 11:53 AM EDT / 2020.09.18 1553 UTC
Wind: from the NNE (020 degrees) at 7 MPH (6 KT):0
Visibility: 10 mile(s):0
Sky conditions: clear
Temperature: 75.9 F (24.4 C)
Dew Point: 64.0 F (17.8 C)
Relative Humidity: 66%
Pressure (altimeter): 30.06 in. Hg (1017 hPa)
ob: KGWO 181553Z AUTO 02006KT 10SM CLR 24/18 A3006 RMK AO2 SLP177 T02440178
cycle: 16

Station Type Date Time Source
KGWO TAF 2020/09/18 12:22 UTC NOAA

TAF KGWO 181120Z 1812/1912 36003KT P6SM SCT100 WS020/36045KT
FM181600 02010G16KT P6SM SCT250
FM182300 02010KT P6SM SCT250

Example: see airport list